Time;durP1;ratioP1;P1;durP2;ratioP2;P2;SDS_P1;SDS_P2;PMS_P1;PMS_P2;Temp;Humidity;BMP_temperature;BMP_pressure;BME280_temperature;BME280_humidity;BME280_pressure;Samples;Min_cycle;Max_cycle;Signal;HPM_P1;HPM_P2
2022/09/11 00:01:32;;;;;;;17.90;10.80;;;;;;;11.21;100.00;99620.34;1725657;83;21122;-68
2022/09/11 00:03:59;;;;;;;16.82;11.45;;;;;;;11.21;100.00;99617.70;1726083;83;21039;-67
2022/09/11 00:06:26;;;;;;;18.75;11.22;;;;;;;11.24;100.00;99614.91;1726276;83;21067;-68
2022/09/11 00:08:59;;;;;;;16.48;10.80;;;;;;;11.26;100.00;99607.31;1726229;83;21075;-67
2022/09/11 00:11:34;;;;;;;19.82;11.43;;;;;;;11.29;100.00;99604.98;1726184;82;21539;-67
2022/09/11 00:14:00;;;;;;;19.85;11.63;;;;;;;11.30;100.00;99597.02;1726239;83;21040;-67
2022/09/11 00:16:34;;;;;;;14.98;9.20;;;;;;;11.33;100.00;99589.42;1723658;82;21566;-67
2022/09/11 00:19:07;;;;;;;19.02;10.53;;;;;;;11.35;100.00;99588.89;1721113;82;21126;-67
2022/09/11 00:21:34;;;;;;;16.50;10.58;;;;;;;11.38;100.00;99591.36;1721411;83;21012;-68
2022/09/11 00:24:02;;;;;;;18.45;10.38;;;;;;;11.42;100.00;99582.37;1721548;83;21565;-67
2022/09/11 00:26:28;;;;;;;18.30;10.78;;;;;;;11.46;100.00;99585.27;1721303;83;21055;-67
2022/09/11 00:28:56;;;;;;;18.82;10.03;;;;;;;11.51;100.00;99580.61;1720687;83;21099;-66
2022/09/11 00:31:26;;;;;;;15.32;10.48;;;;;;;11.54;100.00;99587.03;1720612;83;21524;-67
2022/09/11 00:33:53;;;;;;;18.48;10.78;;;;;;;11.58;100.00;99582.48;1720781;83;21531;-67
2022/09/11 00:36:23;;;;;;;16.02;11.30;;;;;;;11.62;100.00;99576.56;1720688;83;21122;-67
2022/09/11 00:38:50;;;;;;;15.35;10.48;;;;;;;11.69;100.00;99575.36;1720783;83;21106;-67
2022/09/11 00:41:23;;;;;;;12.90;9.38;;;;;;;11.73;100.00;99568.97;1721100;83;21083;-69
2022/09/11 00:44:16;;;;;;;19.10;10.43;;;;;;;11.79;100.00;99558.12;1685696;84;21676;-68
2022/09/11 00:46:49;;;;;;;21.45;11.65;;;;;;;11.84;100.00;99565.32;1720689;83;21142;-66
2022/09/11 00:49:33;;;;;;;16.57;9.60;;;;;;;11.87;100.00;99566.54;1720824;83;21088;-68
2022/09/11 00:52:17;;;;;;;16.70;10.85;;;;;;;11.90;100.00;99551.86;1720960;83;21639;-69
2022/09/11 00:54:53;;;;;;;20.52;11.73;;;;;;;11.95;100.00;99553.78;1720964;83;21088;-68
2022/09/11 00:57:22;;;;;;;21.45;10.93;;;;;;;11.98;100.00;99539.58;1720959;83;21039;-68
2022/09/11 00:59:49;;;;;;;18.23;10.90;;;;;;;12.01;100.00;99547.80;1720685;83;21553;-67
2022/09/11 01:02:18;;;;;;;17.52;11.65;;;;;;;12.03;100.00;99539.33;1693694;83;21066;-67
2022/09/11 01:04:45;;;;;;;20.20;12.18;;;;;;;12.07;100.00;99536.92;1691749;84;21564;-68
2022/09/11 01:07:13;;;;;;;16.05;10.50;;;;;;;12.07;100.00;99540.89;1691639;84;21617;-68
2022/09/11 01:09:41;;;;;;;22.27;12.40;;;;;;;12.05;100.00;99534.83;1691964;84;21062;-66
2022/09/11 01:12:14;;;;;;;17.05;10.72;;;;;;;12.07;100.00;99535.13;1691820;84;21053;-68
2022/09/11 01:15:06;;;;;;;17.32;11.12;;;;;;;12.09;100.00;99532.42;1691910;84;21839;-67
2022/09/11 01:17:48;;;;;;;19.62;11.70;;;;;;;12.11;100.00;99533.20;1714644;81;21049;-67
2022/09/11 01:20:52;;;;;;;15.45;10.60;;;;;;;12.12;100.00;99525.66;1720921;83;21132;-68
2022/09/11 01:23:30;;;;;;;18.42;10.72;;;;;;;12.15;100.00;99529.47;1721112;83;21029;-67
2022/09/11 01:26:33;;;;;;;15.80;10.43;;;;;;;12.14;100.00;99525.11;1721021;83;21152;-67
2022/09/11 01:29:20;;;;;;;16.90;11.30;;;;;;;12.16;100.00;99531.16;1720941;83;21160;-67
2022/09/11 01:31:55;;;;;;;14.98;10.55;;;;;;;12.14;100.00;99525.11;1720974;83;21100;-67
2022/09/11 01:34:34;;;;;;;19.52;11.53;;;;;;;12.13;100.00;99530.02;1720914;83;21096;-69
2022/09/11 01:37:07;;;;;;;17.32;9.98;;;;;;;12.12;100.00;99524.33;1720910;83;21097;-67
2022/09/11 01:39:40;;;;;;;19.87;11.73;;;;;;;12.11;100.00;99525.28;1721174;83;21009;-68
2022/09/11 01:42:13;;;;;;;17.40;11.57;;;;;;;12.10;100.00;99507.72;1720833;83;21355;-69
2022/09/11 01:44:53;;;;;;;20.17;12.00;;;;;;;12.12;100.00;99513.77;1720742;83;21045;-67
2022/09/11 01:47:20;;;;;;;16.52;11.88;;;;;;;12.11;100.00;99513.41;1720766;83;21096;-68
2022/09/11 01:49:55;;;;;;;21.17;12.60;;;;;;;12.12;100.00;99509.81;1720762;83;21068;-68
2022/09/11 01:52:30;;;;;;;13.90;11.00;;;;;;;12.13;100.00;99507.58;1720730;83;21048;-68
2022/09/11 01:55:00;;;;;;;18.10;11.60;;;;;;;12.13;100.00;99508.90;1723159;83;21090;-69
2022/09/11 01:57:32;;;;;;;17.55;10.68;;;;;;;12.12;100.00;99503.22;1725737;83;21059;-67
2022/09/11 02:00:00;;;;;;;17.62;10.53;;;;;;;12.10;100.00;99505.08;1725054;82;21061;-67
2022/09/11 02:02:35;;;;;;;18.35;11.38;;;;;;;12.09;100.00;99499.44;1718386;83;21093;-68
2022/09/11 02:05:17;;;;;;;20.88;11.38;;;;;;;12.07;100.00;99503.46;1721307;83;21096;-67
2022/09/11 02:07:57;;;;;;;16.45;10.15;;;;;;;12.11;100.00;99500.20;1720864;83;21073;-67
2022/09/11 02:10:39;;;;;;;16.60;10.50;;;;;;;12.07;100.00;99485.46;1721140;83;21073;-68
2022/09/11 02:13:15;;;;;;;14.70;10.90;;;;;;;12.04;100.00;99486.48;1720716;83;21068;-67
2022/09/11 02:15:47;;;;;;;12.95;9.55;;;;;;;12.06;100.00;99487.73;1720947;83;21044;-68
2022/09/11 02:18:30;;;;;;;17.17;11.75;;;;;;;12.05;100.00;99493.45;1720513;81;21316;-68
2022/09/11 02:20:57;;;;;;;15.85;10.60;;;;;;;12.04;100.00;99500.15;1720749;83;21141;-66
2022/09/11 02:23:23;;;;;;;15.20;10.43;;;;;;;12.05;100.00;99488.64;1720395;83;21220;-68
2022/09/11 02:25:52;;;;;;;18.48;11.35;;;;;;;12.03;100.00;99476.00;1720607;83;21584;-67
2022/09/11 02:28:19;;;;;;;20.72;11.55;;;;;;;12.06;100.00;99477.17;1720548;83;21030;-68
2022/09/11 02:30:45;;;;;;;17.20;11.93;;;;;;;12.04;100.00;99492.23;1720729;83;21044;-68
2022/09/11 02:33:29;;;;;;;16.82;11.18;;;;;;;12.05;100.00;99484.69;1720459;83;21172;-66
2022/09/11 02:36:28;;;;;;;16.67;11.95;;;;;;;12.05;100.00;99472.81;1720024;83;21785;-67
2022/09/11 02:39:50;;;;;;;16.40;11.73;;;;;;;12.07;100.00;99473.11;1720727;83;21101;-67
2022/09/11 02:42:44;;;;;;;19.23;12.47;;;;;;;12.04;100.00;99479.03;1720480;83;21166;-66
2022/09/11 02:45:53;;;;;;;16.90;11.22;;;;;;;12.05;100.00;99476.77;1720941;83;21076;-67
2022/09/11 02:48:47;;;;;;;17.48;11.70;;;;;;;12.04;100.00;99466.69;1720671;83;21301;-68
2022/09/11 02:51:48;;;;;;;15.75;11.83;;;;;;;12.04;100.00;99465.84;1720453;83;21056;-67
2022/09/11 02:54:18;;;;;;;;;;;;;;;12.08;100.00;99468.70;1723412;83;21106;-67
2022/09/11 02:57:12;;;;;;;17.92;12.05;;;;;;;12.07;100.00;99468.30;1720846;83;20190;-67
2022/09/11 02:59:55;;;;;;;13.68;9.70;;;;;;;12.03;100.00;99467.64;1720530;83;21603;-67
2022/09/11 03:02:23;;;;;;;16.32;11.63;;;;;;;12.06;100.00;99474.53;1714206;83;21094;-67
2022/09/11 03:04:50;;;;;;;16.73;12.25;;;;;;;12.09;100.00;99475.68;1750338;82;21068;-67
2022/09/11 03:07:18;;;;;;;18.52;12.50;;;;;;;12.10;100.00;99480.01;1750592;82;21573;-68
2022/09/11 03:09:44;;;;;;;16.37;11.25;;;;;;;12.09;100.00;99487.55;1750437;82;21202;-69
2022/09/11 03:12:14;;;;;;;13.32;10.23;;;;;;;12.12;100.00;99487.38;1750235;82;21065;-67
2022/09/11 03:14:41;;;;;;;20.27;12.85;;;;;;;12.11;100.00;99489.65;1750849;82;21135;-68
2022/09/11 03:17:10;;;;;;;16.40;11.80;;;;;;;12.13;100.00;99489.95;1739907;82;21010;-68
2022/09/11 03:19:37;;;;;;;16.35;10.82;;;;;;;12.14;100.00;99492.11;1735639;82;21041;-66
2022/09/11 03:22:04;;;;;;;18.35;12.43;;;;;;;12.14;100.00;99496.08;1735960;82;21062;-67
2022/09/11 03:24:31;;;;;;;19.15;12.25;;;;;;;12.16;100.00;99484.97;1735902;82;21076;-65
2022/09/11 03:26:59;;;;;;;15.55;11.97;;;;;;;12.16;100.00;99484.97;1735874;82;21311;-67
2022/09/11 03:29:27;;;;;;;17.12;11.93;;;;;;;12.14;100.00;99485.04;1735662;82;21078;-67
2022/09/11 03:31:57;;;;;;;20.02;13.03;;;;;;;12.14;100.00;99490.80;1735616;82;21141;-67
2022/09/11 03:34:25;;;;;;;18.30;11.83;;;;;;;12.13;100.00;99492.59;1735889;82;21602;-66
2022/09/11 03:36:52;;;;;;;18.25;11.68;;;;;;;12.15;100.00;99500.44;1735650;82;21066;-66
2022/09/11 03:39:19;;;;;;;18.25;12.88;;;;;;;12.12;100.00;99493.54;1735554;82;21141;-67
2022/09/11 03:41:45;;;;;;;16.07;12.15;;;;;;;12.12;100.00;99497.94;1735343;82;21073;-68
2022/09/11 03:44:12;;;;;;;23.38;13.13;;;;;;;12.14;100.00;99493.44;1735382;82;21139;-67
2022/09/11 03:46:39;;;;;;;17.23;12.37;;;;;;;12.16;100.00;99495.53;1735505;82;20982;-67
2022/09/11 03:49:05;;;;;;;17.67;11.93;;;;;;;12.15;100.00;99507.03;1735647;82;21037;-66
2022/09/11 03:51:32;;;;;;;18.95;12.15;;;;;;;12.17;100.00;99501.21;1735652;82;21128;-67
2022/09/11 03:54:00;;;;;;;17.27;11.80;;;;;;;12.17;100.00;99517.89;1733194;82;20994;-66
2022/09/11 03:56:30;;;;;;;15.50;11.88;;;;;;;12.20;100.00;99508.11;1699448;83;21320;-67
2022/09/11 03:58:58;;;;;;;12.70;11.12;;;;;;;12.21;100.00;99512.44;1715700;82;21543;-68
2022/09/11 04:01:25;;;;;;;17.92;11.15;;;;;;;12.18;100.00;99508.18;1699529;83;21098;-68
2022/09/11 04:03:52;;;;;;;16.45;12.10;;;;;;;12.21;100.00;99519.04;1715962;83;21962;-67
2022/09/11 04:06:35;;;;;;;17.60;12.00;;;;;;;12.22;100.00;99511.05;1715742;83;21035;-66
2022/09/11 04:08:59;;;;;;;14.18;11.25;;;;;;;12.21;100.00;99530.91;1715143;83;21130;-68
2022/09/11 04:11:26;;;;;;;13.05;10.68;;;;;;;12.23;100.00;99525.09;1699671;83;21074;-66
2022/09/11 04:13:54;;;;;;;17.60;11.10;;;;;;;12.22;100.00;99524.72;1716271;83;21145;-66
2022/09/11 04:16:22;;;;;;;15.65;11.60;;;;;;;12.23;100.00;99528.58;1699608;83;21210;-67
2022/09/11 04:18:53;;;;;;;16.37;11.63;;;;;;;12.24;100.00;99536.02;1722297;82;21568;-67
2022/09/11 04:21:20;;;;;;;17.20;11.10;;;;;;;12.24;100.00;99530.30;1723438;82;21031;-67
2022/09/11 04:23:55;;;;;;;15.90;11.05;;;;;;;12.25;100.00;99533.31;1723490;82;21036;-67
2022/09/11 04:26:24;;;;;;;13.68;10.43;;;;;;;12.24;100.00;99546.14;1723595;83;21519;-66
2022/09/11 04:28:52;;;;;;;11.65;9.10;;;;;;;12.24;100.00;99551.86;1723983;82;21102;-68
2022/09/11 04:31:20;;;;;;;8.98;7.00;;;;;;;12.25;100.00;99557.07;1723433;82;21086;-66
2022/09/11 04:33:46;;;;;;;5.00;4.33;;;;;;;12.26;100.00;99560.55;1723594;82;21102;-66
2022/09/11 04:36:17;;;;;;;4.25;3.85;;;;;;;12.26;100.00;99558.80;1723622;83;21043;-67
2022/09/11 04:38:45;;;;;;;6.95;3.85;;;;;;;12.24;100.00;99559.78;1723972;83;21011;-68
2022/09/11 04:41:15;;;;;;;5.55;3.75;;;;;;;12.27;100.00;99560.48;1723594;83;21874;-67
2022/09/11 04:43:42;;;;;;;4.55;3.55;;;;;;;12.27;100.00;99559.64;1722865;82;21218;-68
2022/09/11 04:46:13;;;;;;;3.60;3.30;;;;;;;12.27;100.00;99556.53;1723689;83;21102;-69
2022/09/11 04:48:46;;;;;;;5.25;3.77;;;;;;;12.27;100.00;99553.89;1723784;82;21016;-66
2022/09/11 04:51:29;;;;;;;4.45;3.52;;;;;;;12.28;100.00;99548.98;1724004;83;24802;-68
2022/09/11 04:53:56;;;;;;;4.78;3.70;;;;;;;12.30;100.00;99559.47;1726701;81;21111;-67
2022/09/11 04:56:29;;;;;;;5.80;4.20;;;;;;;12.29;100.00;99554.66;1750781;82;21100;-67
2022/09/11 04:59:02;;;;;;;5.17;4.45;;;;;;;12.29;100.00;99550.70;1751137;81;22255;-67
2022/09/11 05:01:30;;;;;;;5.33;4.15;;;;;;;12.27;100.00;99548.61;1751087;82;21320;-67
2022/09/11 05:03:59;;;;;;;4.75;3.70;;;;;;;12.27;100.00;99546.44;1750916;82;21553;-67
2022/09/11 05:06:29;;;;;;;4.83;4.00;;;;;;;12.28;100.00;99551.62;1750808;81;21133;-67
2022/09/11 05:09:03;;;;;;;6.03;4.47;;;;;;;12.27;100.00;99555.20;1751165;81;21120;-68
2022/09/11 05:11:32;;;;;;;5.87;4.15;;;;;;;12.27;100.00;99557.00;1750675;81;22266;-68
2022/09/11 05:13:59;;;;;;;7.20;3.67;;;;;;;12.27;100.00;99560.48;1750568;81;21569;-67
2022/09/11 05:16:28;;;;;;;6.60;4.05;;;;;;;12.28;100.00;99554.73;1750869;82;21656;-67
2022/09/11 05:18:55;;;;;;;5.30;3.80;;;;;;;12.27;100.00;99553.89;1721440;82;21135;-68
2022/09/11 05:21:23;;;;;;;6.22;3.80;;;;;;;12.26;100.00;99557.48;1742832;82;21031;-66
2022/09/11 05:23:53;;;;;;;5.75;3.45;;;;;;;12.27;100.00;99555.20;1742603;82;21059;-66
2022/09/11 05:26:29;;;;;;;4.55;3.55;;;;;;;12.28;100.00;99565.30;1742419;82;21047;-66
2022/09/11 05:29:03;;;;;;;6.10;4.20;;;;;;;12.27;100.00;99566.23;1742568;82;21610;-67
2022/09/11 05:31:30;;;;;;;5.40;3.77;;;;;;;12.27;100.00;99557.00;1742121;82;21794;-66
2022/09/11 05:33:59;;;;;;;5.75;4.28;;;;;;;12.28;100.00;99560.86;1721625;82;21023;-67
2022/09/11 05:36:27;;;;;;;7.47;4.00;;;;;;;12.29;100.00;99564.38;1742495;82;21078;-68
2022/09/11 05:38:54;;;;;;;5.75;4.05;;;;;;;12.33;100.00;99560.17;1742305;82;21492;-68
2022/09/11 05:41:21;;;;;;;7.00;4.10;;;;;;;12.35;100.00;99560.95;1742368;82;21097;-68
2022/09/11 05:43:48;;;;;;;7.42;4.25;;;;;;;12.38;100.00;99559.92;1742457;82;21899;-67
2022/09/11 05:46:17;;;;;;;4.60;3.50;;;;;;;12.37;100.00;99576.21;1742448;82;21031;-67
2022/09/11 05:48:45;;;;;;;4.33;3.35;;;;;;;12.40;100.00;99568.63;1742431;82;21091;-66
2022/09/11 05:51:18;;;;;;;4.28;3.30;;;;;;;12.41;100.00;99574.75;1742493;82;21058;-68
2022/09/11 05:53:49;;;;;;;3.80;3.42;;;;;;;12.38;100.00;99570.02;1742314;82;21003;-68
2022/09/11 05:56:19;;;;;;;3.47;2.85;;;;;;;12.40;100.00;99571.27;1741476;82;21121;-67
2022/09/11 05:58:47;;;;;;;6.00;2.90;;;;;;;12.39;100.00;99566.90;1742362;82;21559;-67
2022/09/11 06:01:18;;;;;;;5.92;3.02;;;;;;;12.37;100.00;99572.25;1742878;82;21075;-67
2022/09/11 06:03:50;;;;;;;3.30;2.98;;;;;;;12.37;100.00;99571.41;1721234;82;21614;-66
2022/09/11 06:06:15;;;;;;;3.15;2.80;;;;;;;12.34;100.00;99564.50;1741364;82;21114;-67
2022/09/11 06:08:46;;;;;;;2.87;2.35;;;;;;;12.35;100.00;99572.83;1742366;82;21193;-65
2022/09/11 06:11:14;;;;;;;3.25;2.70;;;;;;;12.35;100.00;99570.19;1742766;82;21051;-67
2022/09/11 06:13:45;;;;;;;3.12;2.70;;;;;;;12.35;100.00;99568.87;1742426;82;21059;-66
2022/09/11 06:16:19;;;;;;;3.02;2.62;;;;;;;12.37;100.00;99575.36;1742664;82;21090;-67
2022/09/11 06:18:47;;;;;;;6.92;3.12;;;;;;;12.35;100.00;99574.15;1742231;81;21051;-66
2022/09/11 06:21:19;;;;;;;3.83;2.77;;;;;;;12.32;100.00;99576.93;1742540;82;21341;-66
2022/09/11 06:23:48;;;;;;;3.45;2.90;;;;;;;12.30;100.00;99573.98;1737195;82;21551;-68
2022/09/11 06:26:18;;;;;;;3.22;2.50;;;;;;;12.28;100.00;99572.73;1742754;82;21524;-68
2022/09/11 06:28:46;;;;;;;5.22;2.42;;;;;;;12.27;100.00;99573.69;1742582;82;21560;-68
2022/09/11 06:31:15;;;;;;;3.17;2.60;;;;;;;12.28;100.00;99572.73;1742554;82;21099;-69
2022/09/11 06:33:43;;;;;;;6.62;2.55;;;;;;;12.29;100.00;99574.47;1742522;82;22201;-67
2022/09/11 06:36:12;;;;;;;4.05;2.50;;;;;;;12.32;100.00;99571.65;1742481;82;21047;-66
2022/09/11 06:38:39;;;;;;;6.53;2.22;;;;;;;12.34;100.00;99577.70;1742323;82;21547;-67
2022/09/11 06:41:10;;;;;;;3.15;2.20;;;;;;;12.35;100.00;99580.75;1742582;82;21499;-67
2022/09/11 06:43:37;;;;;;;2.85;2.30;;;;;;;12.35;100.00;99575.47;1742782;82;21118;-66
2022/09/11 06:46:11;;;;;;;3.30;2.50;;;;;;;12.37;100.00;99582.81;1742801;82;21208;-68
2022/09/11 06:48:43;;;;;;;3.08;2.60;;;;;;;12.41;100.00;99586.63;1742874;82;21054;-69
2022/09/11 06:51:13;;;;;;;3.20;2.65;;;;;;;12.42;100.00;99588.33;1742713;82;21439;-67
2022/09/11 06:53:42;;;;;;;5.05;3.10;;;;;;;12.43;100.00;99594.01;1741968;82;21603;-67
2022/09/11 06:56:12;;;;;;;4.87;2.75;;;;;;;12.43;100.00;99588.73;1702695;84;21051;-67
2022/09/11 06:58:40;;;;;;;3.45;2.65;;;;;;;12.43;100.00;99594.01;1702695;84;21147;-68
2022/09/11 07:01:12;;;;;;;2.87;2.58;;;;;;;12.41;100.00;99589.27;1702434;84;21012;-67
2022/09/11 07:03:45;;;;;;;4.28;3.67;;;;;;;12.38;100.00;99591.61;1702704;84;21044;-70
2022/09/11 07:06:13;;;;;;;3.80;3.00;;;;;;;12.38;100.00;99603.02;1702286;84;21524;-67
2022/09/11 07:08:40;;;;;;;6.47;5.83;;;;;;;12.40;100.00;99617.47;1682399;84;21122;-66
2022/09/11 07:11:08;;;;;;;6.50;4.85;;;;;;;12.41;100.00;99611.72;1702952;84;21753;-67
2022/09/11 07:13:37;;;;;;;4.45;3.30;;;;;;;12.42;100.00;99609.45;1702509;84;21056;-68
2022/09/11 07:16:11;;;;;;;4.25;3.42;;;;;;;12.46;100.00;99605.72;1701996;83;22254;-68
2022/09/11 07:18:38;;;;;;;6.10;4.20;;;;;;;12.49;100.00;99615.67;1701694;82;21123;-68
2022/09/11 07:21:13;;;;;;;6.85;4.62;;;;;;;12.49;100.00;99616.11;1702187;84;21111;-67
2022/09/11 07:23:40;;;;;;;6.75;4.70;;;;;;;12.49;100.00;99621.39;1702194;83;21153;-67
2022/09/11 07:26:10;;;;;;;14.00;5.17;;;;;;;12.48;100.00;99618.38;1702519;84;21060;-68
2022/09/11 07:28:37;;;;;;;10.78;5.45;;;;;;;12.47;100.00;99617.53;1702475;84;21104;-65
2022/09/11 07:31:10;;;;;;;13.10;6.35;;;;;;;12.50;100.00;99619.16;1702349;84;21059;-68
2022/09/11 07:33:39;;;;;;;11.53;5.67;;;;;;;12.53;100.00;99616.34;1702506;84;21083;-67
2022/09/11 07:36:13;;;;;;;9.05;5.15;;;;;;;12.57;100.00;99624.49;1702695;84;21768;-67
2022/09/11 07:38:44;;;;;;;11.85;6.17;;;;;;;12.58;100.00;99619.58;1702911;84;21059;-68
2022/09/11 07:41:13;;;;;;;7.75;4.35;;;;;;;12.60;100.00;99624.31;1703068;84;21047;-68
2022/09/11 07:43:40;;;;;;;7.00;4.55;;;;;;;12.60;100.00;99621.67;1682583;84;21071;-68
2022/09/11 07:46:09;;;;;;;5.42;3.58;;;;;;;12.58;100.00;99623.10;1702699;84;21188;-69
2022/09/11 07:48:38;;;;;;;5.03;3.47;;;;;;;12.57;100.00;99622.70;1702628;84;22166;-69
2022/09/11 07:51:06;;;;;;;8.30;3.98;;;;;;;12.57;100.00;99622.70;1702455;84;21492;-67
2022/09/11 07:53:37;;;;;;;6.05;3.60;;;;;;;12.58;100.00;99622.22;1683125;84;21071;-68
2022/09/11 07:56:08;;;;;;;6.28;3.52;;;;;;;12.61;100.00;99620.76;1742646;82;21046;-67
2022/09/11 07:58:39;;;;;;;4.28;3.45;;;;;;;12.67;100.00;99611.64;1721360;82;21102;-67
2022/09/11 08:01:09;;;;;;;5.70;3.55;;;;;;;12.76;100.00;99608.50;1742805;82;21119;-67
2022/09/11 08:03:37;;;;;;;5.28;3.50;;;;;;;12.89;100.00;99613.50;1742732;81;21531;-67
2022/09/11 08:06:10;;;;;;;3.60;2.95;;;;;;;12.93;100.00;99617.69;1742788;82;21574;-68
2022/09/11 08:08:38;;;;;;;4.08;2.85;;;;;;;12.99;100.00;99611.20;1742466;82;21106;-69
2022/09/11 08:11:08;;;;;;;3.25;2.42;;;;;;;13.08;100.00;99612.02;1742662;82;21004;-69
2022/09/11 08:13:35;;;;;;;4.45;2.90;;;;;;;13.21;100.00;99619.65;1742928;82;22251;-69
2022/09/11 08:16:02;;;;;;;3.90;2.85;;;;;;;13.32;100.00;99612.92;1742668;82;21027;-68
2022/09/11 08:18:29;;;;;;;3.02;2.45;;;;;;;13.37;100.00;99612.22;1743808;82;21090;-69
2022/09/11 08:21:04;;;;;;;2.87;2.30;;;;;;;13.39;100.00;99609.86;1750656;82;21094;-67
2022/09/11 08:23:31;;;;;;;2.77;2.50;;;;;;;13.45;100.00;99607.33;1750371;82;21266;-68
2022/09/11 08:26:08;;;;;;;5.95;2.58;;;;;;;13.48;100.00;99611.58;1750677;82;21883;-68
2022/09/11 08:28:36;;;;;;;5.08;3.15;;;;;;;13.51;100.00;99618.05;1713837;82;21079;-68
2022/09/11 08:31:05;;;;;;;5.00;3.25;;;;;;;13.48;100.00;99608.50;1750959;82;21103;-68
2022/09/11 08:33:34;;;;;;;5.62;3.22;;;;;;;13.49;100.00;99611.98;1750698;82;21602;-67
2022/09/11 08:36:05;;;;;;;8.95;2.87;;;;;;;13.50;100.00;99609.23;1750910;82;21063;-67
2022/09/11 08:38:33;;;;;;;4.45;2.83;;;;;;;13.50;100.00;99613.20;1750502;82;21569;-67
2022/09/11 08:41:29;;;;;;;5.28;3.10;;;;;;;13.50;100.00;99613.20;1720972;82;21102;-68
2022/09/11 08:44:02;;;;;;;5.40;2.98;;;;;;;13.50;100.00;99616.32;1715280;82;22271;-69
2022/09/11 08:46:39;;;;;;;4.90;2.77;;;;;;;13.47;100.00;99608.09;1750776;82;21038;-67
2022/09/11 08:49:30;;;;;;;5.03;2.80;;;;;;;13.48;100.00;99610.27;1750492;82;21077;-68
2022/09/11 08:52:00;;;;;;;5.05;3.10;;;;;;;13.53;100.00;99606.91;1749791;82;21302;-69
2022/09/11 08:54:37;;;;;;;5.08;3.02;;;;;;;13.62;100.00;99605.05;1721052;82;22219;-67
2022/09/11 08:57:21;;;;;;;5.03;2.80;;;;;;;13.69;100.00;99603.75;1751215;82;21058;-67
2022/09/11 09:00:07;;;;;;;3.50;2.70;;;;;;;13.73;100.00;99609.70;1750599;82;21078;-67
2022/09/11 09:03:11;;;;;;;3.62;2.58;;;;;;;13.72;100.00;99608.02;1750051;80;21050;-67
2022/09/11 09:05:51;;;;;;;2.50;2.30;;;;;;;13.70;100.00;99615.19;1750544;82;22249;-68
2022/09/11 09:08:26;;;;;;;3.42;2.95;;;;;;;13.70;100.00;99609.41;1750794;82;21039;-68
2022/09/11 09:11:19;;;;;;;4.62;2.92;;;;;;;13.76;100.00;99620.13;1750788;81;21078;-66
2022/09/11 09:14:09;;;;;;;5.92;3.08;;;;;;;13.72;100.00;99611.98;1750766;82;21549;-67
2022/09/11 09:16:50;;;;;;;3.40;2.75;;;;;;;13.71;100.00;99619.52;1750825;82;21027;-65
2022/09/11 09:19:48;;;;;;;4.80;2.77;;;;;;;13.72;100.00;99618.59;1747522;81;21913;-70
2022/09/11 09:22:44;;;;;;;5.47;3.52;;;;;;;13.70;100.00;99623.12;1742422;82;21094;-66
2022/09/11 09:25:16;;;;;;;8.83;3.60;;;;;;;13.64;100.00;99622.54;1742330;82;21102;-67
2022/09/11 09:27:50;;;;;;;5.97;3.20;;;;;;;13.52;100.00;99617.09;1742313;82;21567;-67
2022/09/11 09:30:23;;;;;;;4.65;3.50;;;;;;;13.48;100.00;99616.43;1742567;82;21000;-66
2022/09/11 09:33:24;;;;;;;5.10;3.17;;;;;;;13.46;100.00;99621.39;1742319;82;21125;-68
2022/09/11 09:35:53;;;;;;;8.90;3.60;;;;;;;13.43;100.00;99613.17;1742531;82;21582;-68
2022/09/11 09:38:24;;;;;;;7.40;3.72;;;;;;;13.47;100.00;99620.48;1721504;82;21043;-68
2022/09/11 09:41:35;;;;;;;6.85;4.15;;;;;;;13.50;100.00;99611.03;1742647;82;21039;-67
2022/09/11 09:44:24;;;;;;;6.47;4.40;;;;;;;13.52;100.00;99620.58;1742337;82;21114;-69
2022/09/11 09:46:54;;;;;;;8.25;5.20;;;;;;;13.47;100.00;99612.06;1742924;82;21186;-68
2022/09/11 09:49:28;;;;;;;8.38;5.58;;;;;;;13.40;100.00;99616.00;1742589;82;21031;-68
2022/09/11 09:51:57;;;;;;;8.75;5.28;;;;;;;13.41;100.00;99622.98;1742817;82;21079;-67
2022/09/11 09:54:29;;;;;;;6.92;5.03;;;;;;;13.44;100.00;99625.47;1742610;81;21062;-67
2022/09/11 09:56:58;;;;;;;8.15;5.00;;;;;;;13.40;100.00;99621.29;1742151;82;21023;-68
2022/09/11 09:59:28;;;;;;;;;;;;;;;13.41;100.00;99620.34;1745262;82;21523;-68
2022/09/11 10:01:54;;;;;;;9.15;5.30;;;;;;;13.41;100.00;99621.22;1742526;82;20186;-67
2022/09/11 10:04:23;;;;;;;10.28;5.85;;;;;;;13.41;100.00;99622.98;1742480;82;21098;-67
2022/09/11 10:07:13;;;;;;;11.15;5.15;;;;;;;13.44;100.00;99616.22;1742835;82;21047;-68
2022/09/11 10:09:49;;;;;;;10.03;5.80;;;;;;;13.51;100.00;99614.92;1742542;82;21090;-68
2022/09/11 10:12:20;;;;;;;11.50;5.53;;;;;;;13.56;100.00;99616.83;1742773;82;21329;-67
2022/09/11 10:14:58;;;;;;;8.58;5.08;;;;;;;13.57;100.00;99615.03;1742664;82;21508;-67
2022/09/11 10:17:35;;;;;;;7.05;4.90;;;;;;;13.54;100.00;99613.41;1742474;82;21079;-67
2022/09/11 10:20:24;;;;;;;13.55;5.95;;;;;;;13.53;100.00;99610.40;1746287;82;21058;-69
2022/09/11 10:22:53;;;;;;;8.28;5.58;;;;;;;13.53;100.00;99614.84;1750515;82;21196;-68
2022/09/11 10:25:25;;;;;;;11.83;6.85;;;;;;;13.51;100.00;99613.59;1750536;81;21582;-68
2022/09/11 10:28:07;;;;;;;13.72;7.55;;;;;;;13.49;100.00;99604.05;1750502;82;21144;-67
2022/09/11 10:30:39;;;;;;;12.80;7.60;;;;;;;13.49;100.00;99599.61;1750820;82;21035;-68
2022/09/11 10:33:27;;;;;;;10.08;6.67;;;;;;;13.49;100.00;99607.54;1750663;82;21035;-67
2022/09/11 10:35:54;;;;;;;11.20;7.22;;;;;;;13.50;100.00;99610.55;1750338;82;21038;-69
2022/09/11 10:38:37;;;;;;;8.80;5.83;;;;;;;13.56;100.00;99616.83;1750748;82;21104;-68
2022/09/11 10:41:18;;;;;;;14.28;9.08;;;;;;;13.57;100.00;99614.58;1750350;81;21087;-68
2022/09/11 10:44:02;;;;;;;15.35;8.23;;;;;;;13.58;100.00;99612.30;1750710;82;21082;-67
2022/09/11 10:46:38;;;;;;;16.10;8.63;;;;;;;13.61;100.00;99614.76;1750641;82;21055;-66
2022/09/11 10:49:19;;;;;;;13.22;7.20;;;;;;;13.67;100.00;99604.31;1750938;82;21511;-67
2022/09/11 10:52:08;;;;;;;13.90;8.83;;;;;;;13.72;100.00;99600.08;1750659;80;21187;-68
2022/09/11 10:55:00;;;;;;;13.65;8.08;;;;;;;13.77;100.00;99593.55;1750586;82;21063;-69
2022/09/11 10:57:43;;;;;;;14.65;8.55;;;;;;;13.87;100.00;99585.91;1750562;82;21042;-68
2022/09/11 11:00:27;;;;;;;10.80;7.15;;;;;;;13.99;100.00;99578.59;1750406;82;21067;-68
2022/09/11 11:03:16;;;;;;;14.50;9.50;;;;;;;14.09;100.00;99574.06;1750253;82;21106;-68
2022/09/11 11:05:52;;;;;;;13.60;7.97;;;;;;;14.16;100.00;99578.04;1750705;82;21089;-66
2022/09/11 11:08:49;;;;;;;12.95;8.78;;;;;;;14.20;100.00;99571.62;1749843;82;21524;-67
2022/09/11 11:11:41;;;;;;;13.10;8.80;;;;;;;14.28;100.00;99577.28;1750585;82;21535;-68
2022/09/11 11:14:36;;;;;;;17.65;10.08;;;;;;;14.35;100.00;99571.98;1750453;82;21593;-67
2022/09/11 11:17:27;;;;;;;13.62;8.78;;;;;;;14.41;100.00;99572.94;1750513;82;21058;-66
2022/09/11 11:20:30;;;;;;;15.18;8.65;;;;;;;14.36;100.00;99576.36;1714864;82;21888;-68
2022/09/11 11:23:34;;;;;;;15.88;10.23;;;;;;;14.27;100.00;99571.63;1742357;82;21058;-68
2022/09/11 11:26:24;;;;;;;13.78;8.90;;;;;;;14.22;100.00;99569.73;1742538;82;21055;-69
2022/09/11 11:29:09;;;;;;;16.82;9.35;;;;;;;14.20;100.00;99571.62;1742151;82;21142;-68
2022/09/11 11:35:00;;;;;;;13.60;7.42;;;;;;;14.10;100.00;99573.11;1795620;79;22518;-68
2022/09/11 11:37:33;;;;;;;17.95;10.13;;;;;;;14.02;100.00;99574.42;1755832;81;21562;-68
2022/09/11 11:40:32;;;;;;;20.75;11.25;;;;;;;13.96;100.00;99573.94;1756268;81;21224;-68
2022/09/11 11:43:11;;;;;;;13.22;8.63;;;;;;;13.93;100.00;99580.27;1755916;81;20970;-67
2022/09/11 11:45:44;;;;;;;13.58;9.03;;;;;;;13.88;100.00;99584.99;1760393;80;21076;-66
2022/09/11 11:48:47;;;;;;;15.38;9.00;;;;;;;13.87;100.00;99580.63;1790747;80;21055;-67
2022/09/11 11:51:17;;;;;;;17.23;11.70;;;;;;;13.88;100.00;99584.99;1790570;80;21041;-68
2022/09/11 11:53:58;;;;;;;23.20;11.10;;;;;;;13.89;100.00;99576.09;1790689;80;22151;-68
2022/09/11 11:56:50;;;;;;;13.35;10.13;;;;;;;13.90;100.00;99571.67;1790552;80;22380;-68